<?xml version="1.0" encoding="UTF-8" standalone="no" ?>
<gpx xmlns="http://www.topografix.com/GPX/1/1" xmlns:xsi="http://www.w3.org/2001/XMLSchema-instance" xsi:schemaLocation="http://www.topografix.com/GPX/1/1 http://www.topografix.com/GPX/1/1/gpx.xsd" version="1.1" creator="VisuGPX - https://www.visugpx.com">
  <metadata>
    <name>Vacances 2021</name>
  </metadata>
  <trk>
    <name><![CDATA[Journal actif: 2021-07-31 09:37]]></name>
    <trkseg>
      <trkpt lat="48.62449" lon="-1.44478">
        <ele>48.68</ele>
        <time>2021-07-31T11:37:08Z</time>
      </trkpt>
      <trkpt lat="48.62454" lon="-1.4447">
        <ele>17.92</ele>
        <time>2021-07-31T11:37:55Z</time>
      </trkpt>
      <trkpt lat="48.62455" lon="-1.4447">
        <ele>15.52</ele>
        <time>2021-07-31T11:38:30Z</time>
      </trkpt>
      <trkpt lat="48.6246" lon="-1.44483">
        <ele>13.6</ele>
        <time>2021-07-31T11:38:50Z</time>
      </trkpt>
      <trkpt lat="48.62468" lon="-1.44503">
        <ele>11.19</ele>
        <time>2021-07-31T11:39:40Z</time>
      </trkpt>
      <trkpt lat="48.62468" lon="-1.44506">
        <ele>9.27</ele>
        <time>2021-07-31T11:39:59Z</time>
      </trkpt>
      <trkpt lat="48.62472" lon="-1.44515">
        <ele>6.87</ele>
        <time>2021-07-31T11:40:43Z</time>
      </trkpt>
      <trkpt lat="48.62481" lon="-1.44535">
        <ele>0.62</ele>
        <time>2021-07-31T11:41:03Z</time>
      </trkpt>
      <trkpt lat="48.62481" lon="-1.44535">
        <ele>0.62</ele>
        <time>2021-07-31T11:41:22Z</time>
      </trkpt>
      <trkpt lat="48.62487" lon="-1.44543">
        <ele>1.1</ele>
        <time>2021-07-31T11:41:24Z</time>
      </trkpt>
      <trkpt lat="48.62482" lon="-1.44547">
        <ele>1.1</ele>
        <time>2021-07-31T11:41:25Z</time>
      </trkpt>
      <trkpt lat="48.62479" lon="-1.44549">
        <ele>1.1</ele>
        <time>2021-07-31T11:41:26Z</time>
      </trkpt>
      <trkpt lat="48.62475" lon="-1.44551">
        <ele>1.58</ele>
        <time>2021-07-31T11:41:27Z</time>
      </trkpt>
      <trkpt lat="48.62472" lon="-1.44554">
        <ele>1.58</ele>
        <time>2021-07-31T11:41:28Z</time>
      </trkpt>
      <trkpt lat="48.62417" lon="-1.44593">
        <ele>2.54</ele>
        <time>2021-07-31T11:41:38Z</time>
      </trkpt>
      <trkpt lat="48.62335" lon="-1.4467">
        <ele>3.5</ele>
        <time>2021-07-31T11:41:49Z</time>
      </trkpt>
      <trkpt lat="48.62328" lon="-1.4468">
        <ele>3.5</ele>
        <time>2021-07-31T11:41:50Z</time>
      </trkpt>
      <trkpt lat="48.62322" lon="-1.44693">
        <ele>3.02</ele>
        <time>2021-07-31T11:41:51Z</time>
      </trkpt>
      <trkpt lat="48.62316" lon="-1.44706">
        <ele>3.02</ele>
        <time>2021-07-31T11:41:52Z</time>
      </trkpt>
      <trkpt lat="48.62312" lon="-1.44721">
        <ele>3.02</ele>
        <time>2021-07-31T11:41:53Z</time>
      </trkpt>
      <trkpt lat="48.62309" lon="-1.44738">
        <ele>3.02</ele>
        <time>2021-07-31T11:41:54Z</time>
      </trkpt>
      <trkpt lat="48.62307" lon="-1.44755">
        <ele>3.02</ele>
        <time>2021-07-31T11:41:55Z</time>
      </trkpt>
      <trkpt lat="48.62305" lon="-1.44774">
        <ele>3.02</ele>
        <time>2021-07-31T11:41:56Z</time>
      </trkpt>
      <trkpt lat="48.62278" lon="-1.45043">
        <ele>3.98</ele>
        <time>2021-07-31T11:42:11Z</time>
      </trkpt>
      <trkpt lat="48.62262" lon="-1.45152">
        <ele>3.98</ele>
        <time>2021-07-31T11:42:20Z</time>
      </trkpt>
      <trkpt lat="48.6226" lon="-1.45167">
        <ele>3.5</ele>
        <time>2021-07-31T11:42:30Z</time>
      </trkpt>
      <trkpt lat="48.62259" lon="-1.45174">
        <ele>3.5</ele>
        <time>2021-07-31T11:42:31Z</time>
      </trkpt>
      <trkpt lat="48.62259" lon="-1.45174">
        <ele>3.5</ele>
        <time>2021-07-31T11:42:32Z</time>
      </trkpt>
      <trkpt lat="48.62271" lon="-1.45178">
        <ele>3.02</ele>
        <time>2021-07-31T11:42:45Z</time>
      </trkpt>
      <trkpt lat="48.62272" lon="-1.45178">
        <ele>3.02</ele>
        <time>2021-07-31T11:45:10Z</time>
      </trkpt>
      <trkpt lat="48.62267" lon="-1.45173">
        <ele>3.02</ele>
        <time>2021-07-31T11:45:32Z</time>
      </trkpt>
      <trkpt lat="48.62265" lon="-1.45182">
        <ele>3.5</ele>
        <time>2021-07-31T11:45:43Z</time>
      </trkpt>
      <trkpt lat="48.62255" lon="-1.45195">
        <ele>3.98</ele>
        <time>2021-07-31T11:45:49Z</time>
      </trkpt>
      <trkpt lat="48.62255" lon="-1.45195">
        <ele>3.98</ele>
        <time>2021-07-31T11:45:50Z</time>
      </trkpt>
      <trkpt lat="48.62254" lon="-1.45202">
        <ele>3.98</ele>
        <time>2021-07-31T11:45:51Z</time>
      </trkpt>
      <trkpt lat="48.62242" lon="-1.45259">
        <ele>4.46</ele>
        <time>2021-07-31T11:45:58Z</time>
      </trkpt>
      <trkpt lat="48.62238" lon="-1.45268">
        <ele>4.46</ele>
        <time>2021-07-31T11:45:59Z</time>
      </trkpt>
      <trkpt lat="48.62179" lon="-1.4541">
        <ele>5.42</ele>
        <time>2021-07-31T11:46:11Z</time>
      </trkpt>
      <trkpt lat="48.62129" lon="-1.45623">
        <ele>4.46</ele>
        <time>2021-07-31T11:46:25Z</time>
      </trkpt>
      <trkpt lat="48.62067" lon="-1.45787">
        <ele>5.91</ele>
        <time>2021-07-31T11:46:35Z</time>
      </trkpt>
      <trkpt lat="48.61969" lon="-1.45915">
        <ele>4.94</ele>
        <time>2021-07-31T11:46:45Z</time>
      </trkpt>
      <trkpt lat="48.61936" lon="-1.45955">
        <ele>4.94</ele>
        <time>2021-07-31T11:46:53Z</time>
      </trkpt>
    </trkseg>
  </trk>
</gpx>